Time;durP1;ratioP1;P1;durP2;ratioP2;P2;SDS_P1;SDS_P2;PMS_P1;PMS_P2;Temp;Humidity;BMP_temperature;BMP_pressure;BME280_temperature;BME280_humidity;BME280_pressure;Samples;Min_cycle;Max_cycle;Signal;HPM_P1;HPM_P2
2022/01/25 00:24:28;;;;;;;39.15;15.10;;;;;;;-7.20;66.37;96255.69;5072790;28;20201;-79
2022/01/25 00:27:13;;;;;;;21.98;11.07;;;;;;;-7.17;66.21;96255.69;5040147;28;20653;-80
2022/01/25 00:30:20;;;;;;;26.05;13.02;;;;;;;-7.14;66.11;96258.25;5029160;28;20202;-80
2022/01/25 00:32:39;;;;;;;23.20;11.93;;;;;;;-7.19;65.05;96252.28;5072460;28;20269;-80
2022/01/25 00:35:07;;;;;;;26.23;11.77;;;;;;;-7.22;65.83;96268.44;5072313;28;20679;-79
2022/01/25 00:37:38;;;;;;;32.60;14.73;;;;;;;-7.25;66.46;96262.44;5022655;28;20206;-81
2022/01/25 00:40:06;;;;;;;24.77;13.48;;;;;;;-7.29;65.99;96260.72;5072700;28;20202;-79
2022/01/25 00:42:33;;;;;;;21.20;11.18;;;;;;;-7.32;65.41;96258.16;5072130;28;20225;-80
2022/01/25 00:45:01;;;;;;;19.98;10.85;;;;;;;-7.34;65.83;96259.84;5072460;28;20664;-80
2022/01/25 00:47:28;;;;;;;24.45;10.77;;;;;;;-7.37;65.82;96249.63;5072462;28;20202;-79
2022/01/25 00:49:55;;;;;;;21.08;12.68;;;;;;;-7.41;65.51;96251.31;5072187;28;20202;-78
2022/01/25 00:53:53;;;;;;;18.33;10.88;;;;;;;-7.40;66.02;96252.16;5020782;28;20202;-79
2022/01/25 00:55:12;;;;;;;24.77;12.02;;;;;;;-7.44;65.89;96248.75;5072451;28;20237;-80
2022/01/25 00:57:39;;;;;;;31.20;11.18;;;;;;;-7.45;65.82;96253.81;5072121;28;20202;-77
2022/01/25 01:00:10;;;;;;;26.85;10.27;;;;;;;-7.50;66.27;96241.91;5072427;28;20201;-79
2022/01/25 01:02:37;;;;;;;23.73;9.85;;;;;;;-7.48;65.76;96249.56;5072074;28;20230;-82
2022/01/25 01:05:04;;;;;;;20.25;11.07;;;;;;;-7.47;65.59;96240.22;5020870;28;20660;-80
2022/01/25 01:07:31;;;;;;;23.85;9.90;;;;;;;-7.44;66.25;96248.75;5073704;28;20209;-80
2022/01/25 01:09:59;;;;;;;20.02;10.82;;;;;;;-7.54;66.99;96245.25;5076574;28;20239;-80
2022/01/25 01:12:55;;;;;;;34.63;11.60;;;;;;;-7.54;66.22;96244.41;5076454;28;20205;-80
2022/01/25 01:15:27;;;;;;;20.83;11.77;;;;;;;-7.51;66.51;96247.00;5076118;28;20225;-78
2022/01/25 01:29:13;;;;;;;18.10;10.50;;;;;;;-7.57;66.76;96227.41;5075853;28;20197;-81
2022/01/25 01:31:56;;;;;;;12.93;8.80;;;;;;;-7.52;66.06;96228.31;5075861;28;20233;-80
2022/01/25 01:40:25;;;;;;;19.80;10.60;;;;;;;-7.57;64.83;96224.84;5076024;28;20239;-80
2022/01/25 01:43:04;;;;;;;22.80;11.65;;;;;;;-7.56;65.29;96226.56;5075287;28;20236;-80
2022/01/25 01:45:47;;;;;;;21.48;10.05;;;;;;;-7.56;65.32;96221.47;5075300;28;20251;-80
2022/01/25 01:48:27;;;;;;;17.48;8.98;;;;;;;-7.64;65.13;96228.22;5075561;28;20198;-80
2022/01/25 01:50:54;;;;;;;14.23;8.13;;;;;;;-7.67;65.56;96223.09;5075653;28;20206;-80
2022/01/25 01:53:21;;;;;;;12.20;7.95;;;;;;;-7.61;65.99;96224.81;5075382;28;20214;-80
2022/01/25 01:55:48;;;;;;;10.80;8.23;;;;;;;-7.59;65.15;96228.22;5040272;28;20202;-81
2022/01/25 01:58:16;;;;;;;18.20;9.15;;;;;;;-7.64;64.92;96223.13;5040040;28;20205;-80
2022/01/25 02:00:47;;;;;;;13.02;9.68;;;;;;;-7.70;65.00;96217.97;5075216;28;20202;-80
2022/01/25 02:03:16;;;;;;;15.82;8.20;;;;;;;-7.75;64.94;96214.56;5075134;28;20226;-78
2022/01/25 02:05:43;;;;;;;16.02;7.97;;;;;;;-7.73;65.59;96209.47;5074952;28;20209;-80
2022/01/25 02:08:10;;;;;;;14.23;7.88;;;;;;;-7.73;65.14;96207.78;5075236;28;20544;-81
2022/01/25 02:10:37;;;;;;;17.95;8.80;;;;;;;-7.70;65.29;96206.94;5022964;28;20197;-80
2022/01/25 02:13:06;;;;;;;14.80;9.75;;;;;;;-7.73;64.37;96201.81;5075050;28;20202;-79
2022/01/25 02:15:33;;;;;;;14.13;7.75;;;;;;;-7.77;65.39;96206.06;5074985;28;20256;-81
2022/01/25 02:23:27;;;;;;;13.65;9.18;;;;;;;-7.83;66.74;96205.97;5074884;28;20311;-81
2022/01/25 02:25:57;;;;;;;13.82;7.20;;;;;;;-7.84;66.17;96209.38;5074524;28;20214;-82
2022/01/25 02:28:27;;;;;;;19.13;7.68;;;;;;;-7.84;66.12;96194.94;5074747;28;20202;-80
2022/01/25 02:30:54;;;;;;;15.77;7.53;;;;;;;-7.84;66.24;96194.94;5074495;28;20649;-80
2022/01/25 02:33:21;;;;;;;19.95;8.10;;;;;;;-7.92;66.05;96193.19;5075108;28;20220;-80
2022/01/25 02:35:50;;;;;;;15.23;8.23;;;;;;;-8.07;66.60;96182.91;5039480;28;20198;-80
2022/01/25 02:38:22;;;;;;;19.55;8.45;;;;;;;-8.18;66.11;96193.84;5074713;28;20209;-81
2022/01/25 02:40:49;;;;;;;14.05;7.40;;;;;;;-8.43;67.17;96186.88;5074778;28;20549;-79
2022/01/25 02:43:18;;;;;;;15.43;9.40;;;;;;;-8.34;67.56;96188.66;5074796;28;20222;-79
2022/01/25 02:46:01;;;;;;;16.45;8.25;;;;;;;-8.49;67.64;96194.44;5075214;28;20198;-81
2022/01/25 02:48:30;;;;;;;23.95;9.07;;;;;;;-8.45;67.00;96188.53;5074616;28;20209;-80
2022/01/25 02:51:01;;;;;;;33.28;12.85;;;;;;;-8.37;67.98;96192.03;5074406;28;20198;-79
2022/01/25 02:53:28;;;;;;;21.00;12.45;;;;;;;-8.33;68.38;96187.81;5074282;28;20202;-79
2022/01/25 02:55:55;;;;;;;19.10;10.15;;;;;;;-8.28;67.29;96186.97;5023035;28;20742;-79
2022/01/25 02:58:22;;;;;;;29.50;12.50;;;;;;;-8.32;67.47;96180.16;5074139;28;20572;-80
2022/01/25 03:00:49;;;;;;;31.65;15.27;;;;;;;-8.40;68.15;96178.41;5038899;28;20206;-80
2022/01/25 03:03:16;;;;;;;33.08;14.65;;;;;;;-8.41;67.86;96182.63;5073857;28;20230;-80
2022/01/25 03:05:44;;;;;;;16.95;10.55;;;;;;;-8.50;68.61;96170.69;5038886;28;20198;-80
2022/01/25 03:08:14;;;;;;;15.38;9.45;;;;;;;-8.47;68.74;96170.72;5074293;28;20194;-81
2022/01/25 03:10:44;;;;;;;16.95;9.23;;;;;;;-8.49;68.26;96181.72;5074288;28;20200;-80
2022/01/25 03:13:15;;;;;;;25.75;13.52;;;;;;;-8.50;67.95;96170.69;5073716;28;20208;-80
2022/01/25 03:15:58;;;;;;;24.33;14.80;;;;;;;-8.42;67.60;96178.38;5074065;28;20206;-80
2022/01/25 03:18:43;;;;;;;15.13;9.02;;;;;;;-8.49;68.78;96172.41;5073726;28;20205;-80
2022/01/25 03:21:32;;;;;;;33.47;11.80;;;;;;;-8.41;68.89;96169.06;5073739;28;20213;-80
2022/01/25 03:24:01;;;;;;;26.45;14.23;;;;;;;-8.44;67.96;96167.34;5073679;28;20256;-81
2022/01/25 03:26:28;;;;;;;21.70;12.75;;;;;;;-8.54;67.97;96173.19;5074244;28;20445;-80
2022/01/25 03:28:56;;;;;;;22.17;12.52;;;;;;;-8.60;68.38;96178.25;5075430;28;20216;-80
2022/01/25 03:31:24;;;;;;;40.63;18.98;;;;;;;-8.89;69.22;96173.72;5074908;28;20230;-80
2022/01/25 03:33:51;;;;;;;33.63;17.45;;;;;;;-8.85;70.22;96172.06;5041984;28;20204;-80
2022/01/25 03:36:18;;;;;;;49.92;22.75;;;;;;;-8.96;70.32;96164.31;5077325;28;20202;-81
2022/01/25 03:38:47;;;;;;;62.50;29.63;;;;;;;-8.95;71.59;96160.94;5041487;28;20614;-79
2022/01/25 03:41:16;;;;;;;55.75;27.33;;;;;;;-9.01;71.49;96163.41;5076210;28;20213;-80
2022/01/25 03:43:45;;;;;;;58.40;30.95;;;;;;;-8.98;72.40;96152.41;5076911;28;20714;-78
2022/01/25 03:46:17;;;;;;;57.75;27.38;;;;;;;-8.88;73.16;96162.69;5077624;28;20199;-80
2022/01/25 03:51:29;;;;;;;69.00;28.98;;;;;;;-8.68;72.27;96154.41;5073328;28;20275;-80
2022/01/25 03:53:56;;;;;;;53.95;26.17;;;;;;;-8.62;72.01;96149.38;5073135;28;20653;-80
2022/01/25 03:56:24;;;;;;;43.20;20.98;;;;;;;-8.62;70.41;96139.22;5073553;28;20198;-80
2022/01/25 03:58:52;;;;;;;35.42;17.05;;;;;;;-8.62;69.94;96145.16;5037892;28;20272;-80
2022/01/25 04:01:19;;;;;;;29.27;15.68;;;;;;;-8.59;69.97;96134.16;5073368;28;20229;-79
2022/01/25 04:03:55;;;;;;;23.70;11.77;;;;;;;-8.66;69.10;96142.56;5072894;28;20226;-80
2022/01/25 04:06:22;;;;;;;18.17;10.30;;;;;;;-8.66;68.92;96138.34;5073088;28;20259;-80
2022/01/25 04:08:49;;;;;;;21.92;10.40;;;;;;;-8.65;68.46;96146.81;5072689;28;20202;-80
2022/01/25 04:11:16;;;;;;;13.93;8.45;;;;;;;-8.67;68.77;96156.09;5072691;28;20202;-79
2022/01/25 04:13:45;;;;;;;14.20;6.80;;;;;;;-8.64;68.99;96153.63;5020956;28;20229;-80
2022/01/25 04:16:16;;;;;;;12.45;7.78;;;;;;;-8.67;68.17;96135.75;5072861;28;20687;-80
2022/01/25 04:24:38;;;;;;;10.40;6.82;;;;;;;-8.73;68.90;96130.63;5010700;28;20852;-78
2022/01/25 04:24:44;;;;;;;10.75;7.00;;;;;;;-8.63;69.70;96142.59;5010545;28;20282;-79
2022/01/25 04:27:12;;;;;;;15.13;7.18;;;;;;;-8.64;69.99;96130.72;5010688;28;20342;-79
2022/01/25 04:29:40;;;;;;;14.27;7.50;;;;;;;-8.64;70.39;96135.81;5010518;28;20204;-79
2022/01/25 04:32:10;;;;;;;12.07;8.40;;;;;;;-8.57;70.40;96132.47;4998073;28;20224;-79
2022/01/25 04:34:42;;;;;;;9.52;7.13;;;;;;;-8.53;69.55;96114.69;4958636;28;20192;-79
2022/01/25 04:53:41;;;;;;;15.55;8.50;;;;;;;-8.37;67.06;96127.56;4952097;29;20289;-80
2022/01/25 04:56:15;;;;;;;12.57;8.02;;;;;;;-8.37;67.69;96127.56;4952123;29;20256;-79
2022/01/25 04:58:48;;;;;;;12.90;8.68;;;;;;;-8.36;67.85;96122.47;4982709;28;20208;-79
2022/01/25 05:01:18;;;;;;;16.08;8.90;;;;;;;-8.39;67.09;96130.06;5010405;28;20667;-79
2022/01/25 05:03:56;;;;;;;20.80;11.23;;;;;;;-8.39;67.75;96135.16;5010325;28;20224;-79
2022/01/25 05:06:24;;;;;;;31.10;15.07;;;;;;;-8.56;67.04;96124.84;5010303;28;20239;-79
2022/01/25 05:08:53;;;;;;;30.00;15.48;;;;;;;-8.60;67.62;96130.75;5010313;28;20283;-79
2022/01/25 05:11:27;;;;;;;47.85;23.55;;;;;;;-8.63;67.84;96127.34;5010347;28;20202;-79
2022/01/25 05:14:09;;;;;;;56.33;21.45;;;;;;;-8.72;67.90;96139.94;5010455;28;20261;-79
2022/01/25 05:16:47;;;;;;;50.38;22.10;;;;;;;-8.76;68.50;96136.53;5010209;28;20212;-80
2022/01/25 05:19:24;;;;;;;35.13;17.25;;;;;;;-8.71;68.69;96139.97;5010025;28;20199;-78
2022/01/25 05:22:06;;;;;;;39.42;22.25;;;;;;;-8.76;68.96;96132.28;4962894;28;20302;-79
2022/01/25 05:24:34;;;;;;;41.13;19.85;;;;;;;-8.80;68.43;96130.56;5011177;28;20734;-80
2022/01/25 05:27:00;;;;;;;39.72;16.85;;;;;;;-8.88;68.78;96134.72;5011487;28;20204;-81
2022/01/25 05:29:27;;;;;;;34.92;17.33;;;;;;;-8.87;69.97;96128.81;4994436;28;20208;-79
2022/01/25 05:31:56;;;;;;;43.58;23.38;;;;;;;-8.84;69.69;96123.75;5061705;28;20230;-80
2022/01/25 05:34:23;;;;;;;43.97;24.10;;;;;;;-8.88;69.45;96126.25;5073154;28;20220;-80
2022/01/25 05:36:50;;;;;;;68.25;26.38;;;;;;;-9.37;69.68;96126.56;5073234;28;20206;-79
2022/01/25 05:39:20;;;;;;;54.65;25.88;;;;;;;-9.32;70.75;96115.59;5072810;28;20209;-79
2022/01/25 05:41:55;;;;;;;56.60;24.45;;;;;;;-9.26;71.12;96124.13;5073021;28;20232;-78
2022/01/25 05:44:26;;;;;;;52.63;20.83;;;;;;;-9.19;71.53;96118.31;5072682;28;20270;-79
2022/01/25 05:47:05;;;;;;;44.70;22.85;;;;;;;-9.18;71.31;96111.53;5072524;28;20194;-78
2022/01/25 05:49:34;;;;;;;40.00;18.77;;;;;;;-9.15;70.42;96104.78;5073150;28;20537;-80
2022/01/25 05:52:01;;;;;;;37.35;19.27;;;;;;;-9.02;70.93;96107.44;5037203;28;20219;-80
2022/01/25 05:54:28;;;;;;;34.38;15.70;;;;;;;-9.02;71.19;96098.13;5075532;28;20190;-80
2022/01/25 05:56:55;;;;;;;36.80;20.65;;;;;;;-8.84;71.71;96103.41;5074488;28;20426;-77
2022/01/25 05:59:22;;;;;;;35.78;16.20;;;;;;;-8.69;71.96;96110.31;5074751;28;20643;-78
2022/01/25 06:01:49;;;;;;;38.25;19.50;;;;;;;-8.67;72.21;96113.75;5075117;28;20201;-77
2022/01/25 06:04:16;;;;;;;37.95;19.67;;;;;;;-8.62;73.27;96123.94;5074873;28;20623;-77
2022/01/25 06:06:45;;;;;;;33.88;17.52;;;;;;;-8.57;73.88;96122.28;5074672;28;20205;-81
2022/01/25 06:09:12;;;;;;;23.80;13.63;;;;;;;-8.49;73.55;96124.06;5074973;28;20225;-76
2022/01/25 06:11:39;;;;;;;32.55;14.55;;;;;;;-8.36;72.83;96126.72;5075762;28;20206;-76
2022/01/25 06:14:06;;;;;;;30.38;15.65;;;;;;;-8.26;72.08;96136.09;5076136;28;20210;-76
2022/01/25 06:16:36;;;;;;;23.80;13.77;;;;;;;-8.22;73.82;96127.63;5075878;28;20208;-76
2022/01/25 06:19:03;;;;;;;36.80;18.98;;;;;;;-8.22;73.70;96137.81;5076024;28;20210;-76
2022/01/25 06:21:30;;;;;;;34.33;20.02;;;;;;;-8.18;72.45;96131.88;5075940;28;20206;-77
2022/01/25 06:23:58;;;;;;;45.63;22.67;;;;;;;-8.22;72.12;96128.47;5075688;28;20279;-75
2022/01/25 06:26:25;;;;;;;32.40;21.02;;;;;;;-8.15;71.35;96142.94;5024155;28;20280;-76
2022/01/25 06:28:52;;;;;;;36.72;18.10;;;;;;;-8.19;71.56;96120.00;5075831;28;20202;-76
2022/01/25 06:31:19;;;;;;;41.75;18.05;;;;;;;-8.12;72.81;96126.84;5075779;28;20626;-75
2022/01/25 06:33:47;;;;;;;33.58;17.48;;;;;;;-8.15;73.43;96125.13;5075936;28;20263;-76
2022/01/25 06:36:14;;;;;;;38.58;20.88;;;;;;;-8.15;74.14;96122.56;5076052;28;20217;-76
2022/01/25 06:38:42;;;;;;;31.98;17.05;;;;;;;-7.89;74.43;96120.19;5075669;28;20210;-78
2022/01/25 06:41:12;;;;;;;35.15;18.52;;;;;;;-7.71;73.01;96128.81;5075233;28;20209;-77
2022/01/25 06:43:39;;;;;;;45.63;20.92;;;;;;;-7.57;72.53;96127.16;5075566;28;20308;-76
2022/01/25 06:46:06;;;;;;;38.67;19.77;;;;;;;-7.36;71.56;96129.81;5051026;28;20204;-77
2022/01/25 06:48:33;;;;;;;49.03;26.35;;;;;;;-7.13;70.68;96124.81;5054264;28;20217;-77
2022/01/25 06:51:01;;;;;;;39.13;22.27;;;;;;;-7.01;70.25;96123.97;5055360;28;20195;-76
2022/01/25 06:53:28;;;;;;;36.85;21.55;;;;;;;-7.00;70.32;96108.69;5055276;28;20638;-76
2022/01/25 06:55:55;;;;;;;41.25;19.52;;;;;;;-6.90;70.45;96117.22;5054918;28;20207;-77
2022/01/25 06:58:24;;;;;;;37.00;17.80;;;;;;;-6.74;70.82;96113.84;5055089;28;20548;-77
2022/01/25 07:00:51;;;;;;;56.35;24.85;;;;;;;-6.80;70.77;96100.22;5055482;28;20214;-78
2022/01/25 07:03:18;;;;;;;51.97;21.10;;;;;;;-6.76;71.20;96100.22;5050940;28;20214;-78
2022/01/25 07:05:45;;;;;;;38.88;20.10;;;;;;;-6.59;71.06;96105.34;5003416;28;20562;-77
2022/01/25 07:08:12;;;;;;;43.25;22.58;;;;;;;-6.45;70.69;96111.31;5055443;28;20199;-78
2022/01/25 07:10:39;;;;;;;40.40;21.52;;;;;;;-6.29;70.12;96115.59;5054745;28;20653;-78
2022/01/25 07:13:06;;;;;;;50.03;27.98;;;;;;;-6.23;69.46;96111.31;5054979;28;20213;-76
2022/01/25 07:15:34;;;;;;;42.35;24.85;;;;;;;-6.13;69.88;96120.66;5054483;28;20198;-78
2022/01/25 07:18:01;;;;;;;29.98;17.20;;;;;;;-6.03;70.19;96109.59;5054926;28;20209;-78
2022/01/25 07:20:28;;;;;;;33.33;16.40;;;;;;;-5.82;69.96;96096.75;5054187;28;20218;-77
2022/01/25 07:22:55;;;;;;;28.13;15.80;;;;;;;-5.69;69.59;96097.56;5054648;28;20203;-77
2022/01/25 07:25:22;;;;;;;37.40;17.08;;;;;;;-5.45;68.97;96094.94;5054205;28;20201;-77
2022/01/25 07:27:49;;;;;;;35.80;18.40;;;;;;;-5.37;68.13;96093.19;5054552;28;20260;-79
2022/01/25 07:30:16;;;;;;;26.58;15.98;;;;;;;-5.20;67.99;96095.69;5054685;28;20195;-78
2022/01/25 07:32:45;;;;;;;26.58;17.05;;;;;;;-5.12;68.19;96100.78;5054549;28;20233;-78
2022/01/25 07:35:12;;;;;;;26.10;15.30;;;;;;;-5.08;68.24;96095.63;5019386;28;20238;-78
2022/01/25 07:37:43;;;;;;;22.52;13.50;;;;;;;-5.15;68.06;96078.63;5054793;28;20209;-79
2022/01/25 07:40:21;;;;;;;38.30;23.88;;;;;;;-5.22;68.14;96084.59;5055038;28;20191;-79
2022/01/25 07:42:52;;;;;;;37.70;20.45;;;;;;;-5.05;68.66;96081.97;5054743;28;20207;-77
2022/01/25 07:45:21;;;;;;;31.17;16.30;;;;;;;-5.08;67.98;96082.00;5000595;28;20200;-77
2022/01/25 07:47:49;;;;;;;39.53;23.23;;;;;;;-4.94;68.06;96081.91;5034179;28;20577;-77
2022/01/25 07:50:16;;;;;;;28.40;14.70;;;;;;;-4.78;67.90;96086.94;5034389;28;20203;-77
2022/01/25 07:52:43;;;;;;;40.00;19.27;;;;;;;-4.69;66.62;96096.25;4998883;28;20203;-77
2022/01/25 07:55:11;;;;;;;34.30;15.90;;;;;;;-4.67;65.31;96092.81;5033833;28;20212;-78
2022/01/25 07:57:39;;;;;;;26.92;14.20;;;;;;;-4.55;66.33;96089.34;5034340;28;20219;-76
2022/01/25 08:00:07;;;;;;;24.88;14.02;;;;;;;-4.55;67.00;96093.63;5033629;28;20290;-78
2022/01/25 08:02:34;;;;;;;35.38;15.00;;;;;;;-4.54;66.33;96087.63;5036529;28;20828;-76
2022/01/25 08:05:03;;;;;;;20.13;13.27;;;;;;;-4.51;66.56;96080.78;5053681;28;20235;-77
2022/01/25 08:07:30;;;;;;;23.25;15.23;;;;;;;-4.57;66.33;96078.25;5053825;28;20209;-76
2022/01/25 08:09:57;;;;;;;25.95;15.75;;;;;;;-4.75;66.21;96078.38;5053726;28;20696;-77
2022/01/25 08:12:26;;;;;;;27.67;15.57;;;;;;;-4.80;66.73;96075.84;5053345;28;20198;-81
2022/01/25 08:14:57;;;;;;;24.52;15.35;;;;;;;-5.20;67.37;96070.13;5053703;28;20207;-76
2022/01/25 08:17:34;;;;;;;32.08;15.07;;;;;;;-5.36;69.37;96073.59;5053112;28;20219;-77
2022/01/25 08:20:03;;;;;;;23.33;14.13;;;;;;;-5.41;68.89;96065.09;5053930;28;20198;-76
2022/01/25 08:22:30;;;;;;;28.60;16.63;;;;;;;-5.58;69.42;96070.25;5053627;28;20561;-76
2022/01/25 08:24:57;;;;;;;30.30;16.08;;;;;;;-5.45;70.01;96073.63;5054170;28;20218;-78
2022/01/25 08:27:24;;;;;;;23.83;15.63;;;;;;;-5.44;69.77;96068.53;5053607;28;20213;-77
2022/01/25 08:29:52;;;;;;;34.03;16.40;;;;;;;-5.44;70.46;96071.06;5053426;28;20203;-77
2022/01/25 08:32:19;;;;;;;33.97;16.38;;;;;;;-5.56;70.30;96073.66;5053352;28;20226;-77
2022/01/25 08:34:47;;;;;;;24.95;14.48;;;;;;;-5.66;70.75;96070.28;5053583;28;20202;-77
2022/01/25 08:37:16;;;;;;;25.90;15.10;;;;;;;-5.61;71.13;96071.13;5053817;28;20193;-77
2022/01/25 08:39:44;;;;;;;32.05;18.08;;;;;;;-5.54;70.66;96071.09;5053910;28;20198;-77
2022/01/25 08:42:11;;;;;;;36.42;20.30;;;;;;;-5.65;70.59;96066.88;5053636;28;20205;-77
2022/01/25 08:44:39;;;;;;;35.50;19.10;;;;;;;-5.56;71.22;96067.69;5001535;28;20226;-78
2022/01/25 08:47:07;;;;;;;36.38;17.58;;;;;;;-5.48;71.35;96064.28;5034998;28;20210;-77
2022/01/25 08:49:35;;;;;;;27.98;16.27;;;;;;;-5.53;71.49;96065.13;5033982;28;20218;-79
2022/01/25 08:52:02;;;;;;;24.33;14.35;;;;;;;-5.35;72.00;96065.06;5033194;28;20690;-77
2022/01/25 08:54:30;;;;;;;31.35;17.20;;;;;;;-5.26;70.83;96057.34;5033010;28;20216;-79
2022/01/25 08:56:57;;;;;;;30.83;15.70;;;;;;;-5.16;70.34;96060.72;5033360;28;20199;-77
2022/01/25 08:59:24;;;;;;;24.75;16.55;;;;;;;-5.23;69.57;96062.44;5033019;28;20203;-76
2022/01/25 09:01:51;;;;;;;35.55;18.50;;;;;;;-5.34;70.34;96053.97;5033035;28;20202;-78
2022/01/25 09:04:18;;;;;;;29.08;15.88;;;;;;;-5.49;71.58;96051.47;5032999;28;20588;-77
2022/01/25 09:06:45;;;;;;;26.15;15.00;;;;;;;-5.48;70.69;96060.88;5032591;28;20203;-77
2022/01/25 09:09:12;;;;;;;26.52;15.00;;;;;;;-5.44;70.08;96042.94;5032756;28;20670;-78
2022/01/25 09:11:42;;;;;;;30.08;16.30;;;;;;;-5.43;70.16;96033.56;4996453;28;20206;-78
2022/01/25 09:14:10;;;;;;;24.40;14.70;;;;;;;-5.41;69.70;96030.16;5072808;28;20206;-77
2022/01/25 09:16:38;;;;;;;29.77;15.35;;;;;;;-5.23;69.79;96041.97;5073259;28;20208;-78
2022/01/25 09:19:05;;;;;;;22.27;13.50;;;;;;;-5.35;69.63;96030.09;5073149;28;20198;-77
2022/01/25 09:21:32;;;;;;;29.58;13.80;;;;;;;-5.38;69.49;96029.28;5073295;28;20206;-77
2022/01/25 09:23:59;;;;;;;23.83;14.23;;;;;;;-5.40;69.35;96031.84;5021710;28;20226;-76
2022/01/25 09:26:27;;;;;;;23.83;14.10;;;;;;;-5.33;69.04;96040.31;5072736;28;20210;-77
2022/01/25 09:28:57;;;;;;;22.08;13.02;;;;;;;-5.19;68.52;96036.00;5075093;28;20194;-77
2022/01/25 09:31:24;;;;;;;28.95;16.55;;;;;;;-5.03;68.50;96027.38;5076938;28;20237;-77
2022/01/25 09:33:51;;;;;;;39.80;19.83;;;;;;;-4.93;68.29;96017.06;5076796;28;20289;-77
2022/01/25 09:36:18;;;;;;;30.17;14.70;;;;;;;-4.90;68.17;96019.63;5076893;28;20198;-78
2022/01/25 09:38:45;;;;;;;24.83;13.55;;;;;;;-4.76;67.57;96020.34;5075782;28;20619;-78
2022/01/25 09:41:12;;;;;;;27.80;14.13;;;;;;;-4.66;67.10;96027.09;5076509;28;20202;-77
2022/01/25 09:43:40;;;;;;;26.73;15.20;;;;;;;-4.53;66.72;96018.47;5076234;28;20210;-77
2022/01/25 09:46:08;;;;;;;24.42;15.27;;;;;;;-4.49;66.50;96019.28;5058817;28;20203;-77
2022/01/25 09:48:35;;;;;;;33.85;14.82;;;;;;;-4.46;66.32;96015.00;5035999;28;20208;-77
2022/01/25 09:51:03;;;;;;;23.40;14.07;;;;;;;-4.35;65.72;96012.31;5001539;28;20275;-77
2022/01/25 09:53:33;;;;;;;30.73;15.60;;;;;;;-4.25;65.25;96005.41;5035946;28;20207;-77
2022/01/25 09:56:00;;;;;;;26.55;15.15;;;;;;;-4.14;65.27;96004.44;5036642;28;20213;-80
2022/01/25 09:58:27;;;;;;;27.35;14.95;;;;;;;-4.20;64.75;95991.69;5036231;28;20204;-78
2022/01/25 10:00:57;;;;;;;26.52;14.30;;;;;;;-4.21;65.29;95996.84;5036113;28;20211;-77
2022/01/25 10:03:30;;;;;;;25.85;14.27;;;;;;;-4.00;65.00;95988.94;5035788;28;20205;-78
2022/01/25 10:06:00;;;;;;;31.75;15.27;;;;;;;-3.95;64.55;95988.88;5036030;28;20230;-78
2022/01/25 10:08:28;;;;;;;30.00;14.05;;;;;;;-3.94;63.89;95985.44;5036080;28;20702;-78
2022/01/25 10:10:58;;;;;;;29.10;17.25;;;;;;;-4.04;64.59;95987.28;5035717;28;20286;-78
2022/01/25 10:13:27;;;;;;;25.75;14.35;;;;;;;-4.11;64.59;95990.75;5036158;28;20207;-78
2022/01/25 10:16:00;;;;;;;25.35;14.25;;;;;;;-4.16;65.29;95988.22;5035746;28;20772;-78
2022/01/25 10:18:42;;;;;;;20.25;12.80;;;;;;;-4.08;64.75;95988.13;5035936;28;20199;-78
2022/01/25 10:21:15;;;;;;;22.35;13.73;;;;;;;-4.10;65.75;95971.94;5035925;28;20209;-79
2022/01/25 10:23:58;;;;;;;34.88;17.33;;;;;;;-3.97;65.71;95977.78;5035805;28;20207;-77
2022/01/25 10:26:25;;;;;;;133.40;51.88;;;;;;;-4.07;65.89;95984.72;5036019;28;20199;-78
2022/01/25 10:28:53;;;;;;;37.75;20.25;;;;;;;-4.12;65.42;95979.63;5036175;28;20588;-78
2022/01/25 10:31:19;;;;;;;67.00;30.05;;;;;;;-4.04;66.30;95971.91;5035953;28;20599;-78
2022/01/25 10:33:53;;;;;;;26.60;14.45;;;;;;;-4.09;65.97;95955.69;5035829;28;20222;-78
2022/01/25 10:36:23;;;;;;;41.53;20.02;;;;;;;-4.06;66.86;95950.53;5049167;28;20202;-78
2022/01/25 10:38:51;;;;;;;23.67;12.93;;;;;;;-4.07;66.30;95952.25;5055408;28;20711;-79
2022/01/25 10:41:20;;;;;;;20.20;13.27;;;;;;;-4.13;65.91;95954.88;5055039;28;20534;-79
2022/01/25 10:43:49;;;;;;;27.73;12.40;;;;;;;-4.18;65.86;95943.84;5055678;28;20199;-79
2022/01/25 10:46:19;;;;;;;31.55;15.35;;;;;;;-4.22;66.47;95949.88;5046950;28;20294;-78
2022/01/25 10:48:52;;;;;;;25.35;13.73;;;;;;;-4.16;68.12;95952.34;5035751;28;20600;-79
2022/01/25 10:51:22;;;;;;;34.85;18.60;;;;;;;-4.10;68.92;95936.91;5035626;28;20218;-81
2022/01/25 10:54:01;;;;;;;40.03;24.27;;;;;;;-4.07;66.91;95939.44;5072694;28;20201;-80
2022/01/25 10:56:35;;;;;;;37.03;19.92;;;;;;;-4.09;66.81;95945.44;5075296;28;20224;-79
2022/01/25 10:59:04;;;;;;;31.55;17.85;;;;;;;-4.14;67.64;95932.69;5040094;28;20205;-81
2022/01/25 11:01:32;;;;;;;67.75;45.13;;;;;;;-4.09;68.54;95923.22;5075838;28;20190;-80
2022/01/25 11:04:07;;;;;;;39.67;24.30;;;;;;;-3.95;67.77;95925.63;5062434;28;20194;-79
2022/01/25 11:06:34;;;;;;;28.23;15.20;;;;;;;-3.93;67.04;95912.81;5054897;28;20205;-78
2022/01/25 11:09:05;;;;;;;43.80;21.90;;;;;;;-3.94;68.28;95911.09;5055173;28;20199;-79
2022/01/25 11:11:36;;;;;;;71.28;44.40;;;;;;;-3.85;68.11;95905.84;5055431;28;20248;-79
2022/01/25 11:16:47;;;;;;;34.78;17.85;;;;;;;-3.79;67.90;95906.63;5008973;28;20597;-78
2022/01/25 11:19:16;;;;;;;31.75;19.80;;;;;;;-3.66;67.59;95906.47;5055677;28;20209;-79
2022/01/25 11:21:44;;;;;;;42.05;25.55;;;;;;;-3.68;67.00;95905.66;5055027;28;20285;-79
2022/01/25 11:24:13;;;;;;;54.65;28.13;;;;;;;-3.54;67.45;95911.41;5054756;28;20625;-78
2022/01/25 11:26:41;;;;;;;29.58;15.27;;;;;;;-3.41;66.02;95896.72;5051397;28;20222;-79
2022/01/25 11:29:09;;;;;;;104.72;57.80;;;;;;;-3.35;65.75;95888.94;5034635;28;20207;-78
2022/01/25 11:31:39;;;;;;;49.67;28.15;;;;;;;-3.32;65.45;95876.91;5034765;28;20235;-78
2022/01/25 11:34:11;;;;;;;122.75;70.47;;;;;;;-3.25;64.97;95877.66;5034760;28;20203;-78
2022/01/25 11:36:46;;;;;;;124.65;64.25;;;;;;;-3.16;65.91;95874.97;5034405;28;20202;-79
2022/01/25 11:39:20;;;;;;;22.35;16.90;;;;;;;-3.28;65.07;95873.41;5034854;28;20207;-78
2022/01/25 11:41:47;;;;;;;37.08;20.10;;;;;;;-3.23;65.40;95871.63;5034642;28;20246;-76
2022/01/25 11:44:18;;;;;;;32.78;16.92;;;;;;;-3.29;65.69;95860.59;5034110;28;20203;-78
2022/01/25 11:46:49;;;;;;;34.72;17.45;;;;;;;-3.24;65.49;95859.66;5045139;28;20207;-79
2022/01/25 11:49:18;;;;;;;38.55;18.13;;;;;;;-3.20;66.17;95851.03;5054017;28;20669;-79
2022/01/25 11:52:05;;;;;;;32.03;18.38;;;;;;;-3.21;66.18;95851.06;5054439;28;20195;-76
2022/01/25 11:54:32;;;;;;;56.53;29.80;;;;;;;-3.21;65.99;95854.47;5054413;28;20213;-78
2022/01/25 11:57:10;;;;;;;26.75;18.15;;;;;;;-3.30;65.68;95838.38;5053811;28;20206;-78
2022/01/25 11:59:38;;;;;;;36.53;17.90;;;;;;;-3.30;66.10;95838.38;5054282;28;20272;-77
2022/01/25 12:02:05;;;;;;;50.97;28.33;;;;;;;-3.15;66.65;95839.00;5054430;28;20202;-77
2022/01/25 12:04:33;;;;;;;57.55;26.73;;;;;;;-3.01;66.19;95837.91;4999592;28;20197;-76
2022/01/25 12:07:11;;;;;;;26.77;16.13;;;;;;;-2.99;65.03;95838.72;5034007;28;20282;-77
2022/01/25 12:09:46;;;;;;;33.72;18.48;;;;;;;-3.00;64.78;95831.91;5034596;28;20246;-77
2022/01/25 12:12:15;;;;;;;27.77;15.38;;;;;;;-3.13;65.32;95829.53;5034145;28;20241;-77
2022/01/25 12:14:45;;;;;;;40.03;19.02;;;;;;;-2.98;65.28;95830.16;5034340;28;20196;-78
2022/01/25 12:17:14;;;;;;;30.20;17.38;;;;;;;-3.00;64.96;95811.34;5000325;28;20230;-76
2022/01/25 12:19:45;;;;;;;31.77;16.50;;;;;;;-2.89;65.52;95812.00;5047416;28;20643;-78
2022/01/25 12:22:33;;;;;;;27.55;16.67;;;;;;;-2.64;65.21;95820.97;5073818;28;20206;-79
2022/01/25 12:25:09;;;;;;;39.20;17.02;;;;;;;-2.48;64.27;95821.53;5073665;28;20241;-79
2022/01/25 12:27:48;;;;;;;29.48;18.13;;;;;;;-2.47;64.14;95825.78;5073845;28;20538;-79
2022/01/25 12:30:19;;;;;;;30.92;18.13;;;;;;;-2.33;64.10;95822.94;5073684;28;20538;-77
2022/01/25 12:33:01;;;;;;;34.67;17.27;;;;;;;-2.24;63.74;95820.19;5073204;28;20226;-78
2022/01/25 12:35:45;;;;;;;35.88;15.18;;;;;;;-2.24;62.51;95817.63;5073483;28;20220;-78
2022/01/25 12:38:19;;;;;;;36.10;18.00;;;;;;;-2.42;62.54;95807.72;4973069;28;20678;-80
2022/01/25 12:40:57;;;;;;;32.45;18.52;;;;;;;-2.46;62.13;95801.78;4972448;28;20208;-79
2022/01/25 12:43:27;;;;;;;32.22;15.90;;;;;;;-2.51;63.14;95793.31;4940017;28;20213;-78